Repubbli Del Brasile — IBZB — position and weather

sailwx.info

Track history (hours):
 
Tides and Currents Weather Stations Pressure Air Temp Water Temp Dewpoint Dewpoint Depression Visibility Wind Speed Wind Dir Waves Ship Positions

Repubbli Del Brasile

Last reported at 2014-Oct-16 09:32 UTC. Time now 2014-Oct-31 19:29 UTC.
Position N 35°59' W 005°32'.
Warning: this ship's position is 15 days out of date.

Length 209 m; draft 10 m.

Type: Ship (hazmat cat A). MMSI: 247310000.

Date/timePositionNaut miles runAvg speedWind from/ knotsBaromVisibWave heightAir tempDewpointWater temp
2014-Oct-16 09:32N 35°59' W 005°32'1413.9
2014-Oct-16 08:33N 36°02' W 005°15'20714.8
2014-Oct-15 18:33N 36°40' W 001°02'1514.4
2014-Oct-15 17:30N 36°44' W 000°44'46714.6
2014-Oct-14 09:33N 38°47' E 008°45'1515.1
2014-Oct-14 08:32N 38°51' E 009°04'1515.3
2014-Oct-14 07:33N 38°56' E 009°23'1615.2
2014-Oct-14 06:30N 39°02' E 009°41'21115.0
2014-Oct-13 16:24N 40°21' E 013°56'1315.0
2014-Oct-13 15:34N 40°26' E 014°11'1614.9
2014-Oct-13 14:31N 40°32' E 014°30'301 7.1
2014-Oct-11 20:04N 43°45' E 009°20'815.7
2014-Oct-11 19:33N 43°53' E 009°16'1616.0
2014-Oct-11 18:33N 44°07' E 009°07'1615.6
2014-Oct-11 17:33N 44°21' E 008°58'4 3.9
2014-Oct-11 16:28N 44°24' E 008°53'0 0.0
2014-Oct-11 15:30N 44°24' E 008°53'0 0.0
2014-Oct-11 14:28N 44°24' E 008°53'0 0.0
2014-Oct-11 13:33N 44°24' E 008°53'0 0.0
2014-Oct-11 12:30N 44°24' E 008°53'0 0.0
2014-Oct-11 11:26N 44°24' E 008°53'0 0.0
2014-Oct-11 10:32N 44°24' E 008°53'0 0.0
2014-Oct-11 09:31N 44°24' E 008°53'0 0.0
2014-Oct-11 08:31N 44°24' E 008°53'0 0.0
2014-Oct-11 07:28N 44°24' E 008°53'0 0.0
2014-Oct-11 06:33N 44°24' E 008°53'0 0.0
2014-Oct-11 05:27N 44°24' E 008°53'0 0.0
2014-Oct-11 04:32N 44°24' E 008°53'0 0.0
2014-Oct-11 03:32N 44°24' E 008°53'0 0.0
2014-Oct-11 02:31N 44°24' E 008°53'0 0.0
2014-Oct-11 01:31N 44°24' E 008°53'0 0.0
2014-Oct-11 00:34N 44°24' E 008°53'0 0.0
2014-Oct-10 23:33N 44°24' E 008°53'0 0.0
2014-Oct-10 22:30N 44°24' E 008°53'0 0.0
2014-Oct-10 21:20N 44°24' E 008°53'0 0.0
2014-Oct-10 20:26N 44°24' E 008°53'0 0.0
2014-Oct-10 19:28N 44°24' E 008°53'0 0.0
2014-Oct-10 18:31N 44°24' E 008°53'0 0.0
2014-Oct-10 17:34N 44°24' E 008°53'0 0.0
2014-Oct-10 16:33N 44°24' E 008°53'0 0.0
2014-Oct-10 15:33N 44°24' E 008°53'0 0.0
2014-Oct-10 14:32N 44°24' E 008°53'0 0.0
2014-Oct-10 13:32N 44°24' E 008°53'0 0.0
2014-Oct-10 12:31N 44°24' E 008°53'0 0.0
2014-Oct-10 11:31N 44°24' E 008°53'0 0.0
2014-Oct-10 10:33N 44°24' E 008°53'0 0.0
2014-Oct-10 09:33N 44°24' E 008°53'0 0.0
2014-Oct-10 08:33N 44°24' E 008°53'0 0.0
2014-Oct-10 07:32N 44°24' E 008°53'0 0.0
2014-Oct-10 06:29N 44°24' E 008°53'0 0.0
2014-Oct-10 04:25N 44°24' E 008°53'0 0.0
2014-Oct-10 03:30N 44°24' E 008°53'0 0.0
2014-Oct-10 02:30N 44°24' E 008°53'0 0.0
2014-Oct-10 01:30N 44°24' E 008°53'0 0.0
2014-Oct-10 00:29N 44°24' E 008°53'0 0.0
2014-Oct-09 23:26N 44°24' E 008°53'0 0.0
2014-Oct-09 22:28N 44°24' E 008°53'0 0.0
2014-Oct-09 19:33N 44°24' E 008°53'4 3.7
2014-Oct-09 18:33N 44°22' E 008°58'7 6.9
2014-Oct-09 17:33N 44°16' E 008°55'1514.6
2014-Oct-09 16:33N 44°06' E 008°40'1413.9
2014-Oct-09 15:33N 43°57' E 008°25'1413.6
2014-Oct-09 14:31N 43°48' E 008°10'3014.3
2014-Oct-09 12:26N 43°29' E 007°38'1514.6
2014-Oct-09 11:24N 43°20' E 007°22'1314.7
2014-Oct-09 10:33N 43°12' E 007°09'1514.6
2014-Oct-09 09:33N 43°02' E 006°53'1514.7
2014-Oct-09 08:33N 42°53' E 006°38'1313.2
2014-Oct-09 07:33N 42°50' E 006°20'1413.8
2014-Oct-09 06:34N 42°50' E 006°02'1313.0
2014-Oct-09 05:33N 42°55' E 005°45'1313.3
2014-Oct-09 04:34N 43°01' E 005°29'1614.0
2014-Oct-09 03:26N 43°10' E 005°11'910.6
2014-Oct-09 02:33N 43°19' E 005°15'4 0.2
2014-Oct-08 09:32N 43°21' E 005°20'8 7.7
2014-Oct-08 08:33N 43°16' E 005°12'1312.9
2014-Oct-08 07:33N 43°04' E 005°05'1515.5
2014-Oct-08 06:34N 42°52' E 004°52'2115.5
2014-Oct-08 05:11N 42°35' E 004°35'1416.2
2014-Oct-08 04:20N 42°24' E 004°24'1916.0
2014-Oct-08 03:09N 42°09' E 004°09'1316.3
2014-Oct-08 02:22N 41°58' E 003°59'6115.8
2014-Oct-07 22:31N 41°21' E 002°55'1515.8
2014-Oct-07 21:34N 41°12' E 002°39'1615.7
2014-Oct-07 20:33N 41°02' E 002°22'1615.9
2014-Oct-07 19:34N 40°53' E 002°05'1616.1
2014-Oct-07 18:33N 40°44' E 001°48'1616.3
2014-Oct-07 17:33N 40°34' E 001°31'1616.1
2014-Oct-07 16:33N 40°25' E 001°14'1616.0
2014-Oct-07 15:33N 40°15' E 000°56'1615.8
2014-Oct-07 14:34N 40°06' E 000°40'5015.7
2014-Oct-07 11:23N 39°32' W 000°08'1011.9
2014-Oct-07 10:33N 39°26' W 000°18'0 0.1
2014-Oct-07 09:31N 39°27' W 000°18'0 0.0
2014-Oct-07 08:33N 39°27' W 000°18'0 0.0
2014-Oct-07 07:33N 39°27' W 000°18'0 0.0
2014-Oct-07 06:33N 39°27' W 000°18'0 0.0
2014-Oct-07 05:32N 39°27' W 000°18'0 0.0
2014-Oct-07 04:32N 39°27' W 000°18'0 0.0
2014-Oct-07 03:28N 39°27' W 000°18'0 0.0
2014-Oct-07 02:31N 39°27' W 000°18'0 0.0
2014-Oct-07 01:33N 39°27' W 000°18'0 0.0
2014-Oct-07 00:33N 39°27' W 000°18'0 0.0
2014-Oct-06 23:33N 39°27' W 000°18'0 0.0
2014-Oct-06 22:32N 39°27' W 000°18'0 0.0
2014-Oct-06 21:32N 39°27' W 000°18'0 0.0
2014-Oct-06 20:31N 39°27' W 000°18'0 0.0
2014-Oct-06 19:31N 39°27' W 000°18'0 0.0
2014-Oct-06 18:33N 39°27' W 000°18'0 0.0
2014-Oct-06 17:33N 39°27' W 000°18'0 0.0
2014-Oct-06 16:33N 39°27' W 000°18'0 0.0
2014-Oct-06 15:32N 39°27' W 000°18'0 0.0
2014-Oct-06 14:32N 39°27' W 000°18'0 0.0
2014-Oct-06 13:31N 39°27' W 000°18'0 0.0
2014-Oct-06 12:31N 39°27' W 000°18'0 0.0
2014-Oct-06 11:33N 39°27' W 000°18'0 0.0
2014-Oct-06 10:33N 39°27' W 000°18'0 0.0
2014-Oct-06 09:33N 39°27' W 000°18'  
Track history (hours):
 
Tides and Currents Weather Stations Pressure Air Temp Water Temp Dewpoint Dewpoint Depression Visibility Wind Speed Wind Dir Waves Ship Positions

Repubbli Del Brasile

Last reported at 2014-Oct-16 09:32 UTC. Time now 2014-Oct-31 19:29 UTC.
Position N 35°59' W 005°32'.
Warning: this ship's position is 15 days out of date.

Length 209 m; draft 10 m.

Type: Ship (hazmat cat A). MMSI: 247310000.

Date/timePositionNaut miles runAvg speedWind from/ knotsBaromVisibWave heightAir tempDewpointWater temp
2014-Oct-16 09:32N 35°59' W 005°32'1413.9
2014-Oct-16 08:33N 36°02' W 005°15'20714.8
2014-Oct-15 18:33N 36°40' W 001°02'1514.4
2014-Oct-15 17:30N 36°44' W 000°44'46714.6
2014-Oct-14 09:33N 38°47' E 008°45'1515.1
2014-Oct-14 08:32N 38°51' E 009°04'1515.3
2014-Oct-14 07:33N 38°56' E 009°23'1615.2
2014-Oct-14 06:30N 39°02' E 009°41'21115.0
2014-Oct-13 16:24N 40°21' E 013°56'1315.0
2014-Oct-13 15:34N 40°26' E 014°11'1614.9
2014-Oct-13 14:31N 40°32' E 014°30'301 7.1
2014-Oct-11 20:04N 43°45' E 009°20'815.7
2014-Oct-11 19:33N 43°53' E 009°16'1616.0
2014-Oct-11 18:33N 44°07' E 009°07'1615.6
2014-Oct-11 17:33N 44°21' E 008°58'4 3.9
2014-Oct-11 16:28N 44°24' E 008°53'0 0.0
2014-Oct-11 15:30N 44°24' E 008°53'0 0.0
2014-Oct-11 14:28N 44°24' E 008°53'0 0.0
2014-Oct-11 13:33N 44°24' E 008°53'0 0.0
2014-Oct-11 12:30N 44°24' E 008°53'0 0.0
2014-Oct-11 11:26N 44°24' E 008°53'0 0.0
2014-Oct-11 10:32N 44°24' E 008°53'0 0.0
2014-Oct-11 09:31N 44°24' E 008°53'0 0.0
2014-Oct-11 08:31N 44°24' E 008°53'0 0.0
2014-Oct-11 07:28N 44°24' E 008°53'0 0.0
2014-Oct-11 06:33N 44°24' E 008°53'0 0.0
2014-Oct-11 05:27N 44°24' E 008°53'0 0.0
2014-Oct-11 04:32N 44°24' E 008°53'0 0.0
2014-Oct-11 03:32N 44°24' E 008°53'0 0.0
2014-Oct-11 02:31N 44°24' E 008°53'0 0.0
2014-Oct-11 01:31N 44°24' E 008°53'0 0.0
2014-Oct-11 00:34N 44°24' E 008°53'0 0.0
2014-Oct-10 23:33N 44°24' E 008°53'0 0.0
2014-Oct-10 22:30N 44°24' E 008°53'0 0.0
2014-Oct-10 21:20N 44°24' E 008°53'0 0.0
2014-Oct-10 20:26N 44°24' E 008°53'0 0.0
2014-Oct-10 19:28N 44°24' E 008°53'0 0.0
2014-Oct-10 18:31N 44°24' E 008°53'0 0.0
2014-Oct-10 17:34N 44°24' E 008°53'0 0.0
2014-Oct-10 16:33N 44°24' E 008°53'0 0.0
2014-Oct-10 15:33N 44°24' E 008°53'0 0.0
2014-Oct-10 14:32N 44°24' E 008°53'0 0.0
2014-Oct-10 13:32N 44°24' E 008°53'0 0.0
2014-Oct-10 12:31N 44°24' E 008°53'0 0.0
2014-Oct-10 11:31N 44°24' E 008°53'0 0.0
2014-Oct-10 10:33N 44°24' E 008°53'0 0.0
2014-Oct-10 09:33N 44°24' E 008°53'0 0.0
2014-Oct-10 08:33N 44°24' E 008°53'0 0.0
2014-Oct-10 07:32N 44°24' E 008°53'0 0.0
2014-Oct-10 06:29N 44°24' E 008°53'0 0.0
2014-Oct-10 04:25N 44°24' E 008°53'0 0.0
2014-Oct-10 03:30N 44°24' E 008°53'0 0.0
2014-Oct-10 02:30N 44°24' E 008°53'0 0.0
2014-Oct-10 01:30N 44°24' E 008°53'0 0.0
2014-Oct-10 00:29N 44°24' E 008°53'0 0.0
2014-Oct-09 23:26N 44°24' E 008°53'0 0.0
2014-Oct-09 22:28N 44°24' E 008°53'0 0.0
2014-Oct-09 19:33N 44°24' E 008°53'4 3.7
2014-Oct-09 18:33N 44°22' E 008°58'7 6.9
2014-Oct-09 17:33N 44°16' E 008°55'1514.6
2014-Oct-09 16:33N 44°06' E 008°40'1413.9
2014-Oct-09 15:33N 43°57' E 008°25'1413.6
2014-Oct-09 14:31N 43°48' E 008°10'3014.3
2014-Oct-09 12:26N 43°29' E 007°38'1514.6
2014-Oct-09 11:24N 43°20' E 007°22'1314.7
2014-Oct-09 10:33N 43°12' E 007°09'1514.6
2014-Oct-09 09:33N 43°02' E 006°53'1514.7
2014-Oct-09 08:33N 42°53' E 006°38'1313.2
2014-Oct-09 07:33N 42°50' E 006°20'1413.8
2014-Oct-09 06:34N 42°50' E 006°02'1313.0
2014-Oct-09 05:33N 42°55' E 005°45'1313.3
2014-Oct-09 04:34N 43°01' E 005°29'1614.0
2014-Oct-09 03:26N 43°10' E 005°11'910.6
2014-Oct-09 02:33N 43°19' E 005°15'4 0.2
2014-Oct-08 09:32N 43°21' E 005°20'8 7.7
2014-Oct-08 08:33N 43°16' E 005°12'1312.9
2014-Oct-08 07:33N 43°04' E 005°05'1515.5
2014-Oct-08 06:34N 42°52' E 004°52'2115.5
2014-Oct-08 05:11N 42°35' E 004°35'1416.2
2014-Oct-08 04:20N 42°24' E 004°24'1916.0
2014-Oct-08 03:09N 42°09' E 004°09'1316.3
2014-Oct-08 02:22N 41°58' E 003°59'6115.8
2014-Oct-07 22:31N 41°21' E 002°55'1515.8
2014-Oct-07 21:34N 41°12' E 002°39'1615.7
2014-Oct-07 20:33N 41°02' E 002°22'1615.9
2014-Oct-07 19:34N 40°53' E 002°05'1616.1
2014-Oct-07 18:33N 40°44' E 001°48'1616.3
2014-Oct-07 17:33N 40°34' E 001°31'1616.1
2014-Oct-07 16:33N 40°25' E 001°14'1616.0
2014-Oct-07 15:33N 40°15' E 000°56'1615.8
2014-Oct-07 14:34N 40°06' E 000°40'5015.7
2014-Oct-07 11:23N 39°32' W 000°08'1011.9
2014-Oct-07 10:33N 39°26' W 000°18'0 0.1
2014-Oct-07 09:31N 39°27' W 000°18'0 0.0
2014-Oct-07 08:33N 39°27' W 000°18'0 0.0
2014-Oct-07 07:33N 39°27' W 000°18'0 0.0
2014-Oct-07 06:33N 39°27' W 000°18'0 0.0
2014-Oct-07 05:32N 39°27' W 000°18'0 0.0
2014-Oct-07 04:32N 39°27' W 000°18'0 0.0
2014-Oct-07 03:28N 39°27' W 000°18'0 0.0
2014-Oct-07 02:31N 39°27' W 000°18'0 0.0
2014-Oct-07 01:33N 39°27' W 000°18'0 0.0
2014-Oct-07 00:33N 39°27' W 000°18'0 0.0
2014-Oct-06 23:33N 39°27' W 000°18'0 0.0
2014-Oct-06 22:32N 39°27' W 000°18'0 0.0
2014-Oct-06 21:32N 39°27' W 000°18'0 0.0
2014-Oct-06 20:31N 39°27' W 000°18'0 0.0
2014-Oct-06 19:31N 39°27' W 000°18'0 0.0
2014-Oct-06 18:33N 39°27' W 000°18'0 0.0
2014-Oct-06 17:33N 39°27' W 000°18'0 0.0
2014-Oct-06 16:33N 39°27' W 000°18'0 0.0
2014-Oct-06 15:32N 39°27' W 000°18'0 0.0
2014-Oct-06 14:32N 39°27' W 000°18'0 0.0
2014-Oct-06 13:31N 39°27' W 000°18'0 0.0
2014-Oct-06 12:31N 39°27' W 000°18'0 0.0
2014-Oct-06 11:33N 39°27' W 000°18'0 0.0
2014-Oct-06 10:33N 39°27' W 000°18'0 0.0
2014-Oct-06 09:33N 39°27' W 000°18'  

Dump ship's entire track history